Pays
Station

 

Conditions  météo  pour  Witbank  -  Afrique Du Sud    Afrique Du Sud

  
19 °C
    
 
 

METAR pour Witbank :

FAWI 270600Z AUTO 00000KT //// // ////// 19/13 Q1020

 

Voici le bulletin pour Witbank - Afrique Du Sud.
 
Le bulletin a été fait il y a 681 heures et 36 minutes, à 06:00 UTC .
Le vent était calme.
 
La température était de 19 °C, avec un point de rosée à 13 °C.
La pression atmosphérique était de 1020 hPa.
L'humidité relative était de 68.2%.
 

 
 
 

Pays :   A   B   C   D   E   F   G   H   I   J   K   L   M   N   O   P   Q   R   S   T   U   V   W   Y   Z

 

Partenaires :  Info Météo avec Met'info
Météo Marine avec MeteoMarine.net
Infos Site  |  Infos Légales  |  Crédits  |  Confidentialité
Contactez-nous  |  Ajouter aux favoris
© 2013-2020 METAR - Tous droits réservés